Terminal Aerodrome Forecast
Issued by NWS Charleston, WV

Current Version | Previous Version | Graphics & Text | Print | Product List | Glossary On
Versions: 1 2 3 4 5 6 7 8 9 10 11 12 13 14 15 16 17 18 19 20 21 22 23
000
FTUS41 KRLX 201700
TAFBKW
TAF
KBKW 201724Z 2018/2118 27013G22KT P6SM SCT035
     FM210400 29009G15KT P6SM SCT025
     FM210700 29008G13KT P6SM BKN025
     FM210900 30007KT P6SM BKN020
     FM211500 30008G13KT P6SM SCT025=

USA.gov is the U.S. government's official web portal to all federal, state and local government web resources and services.